sensor_id;sensor_type;location;lat;lon;timestamp;P1;durP1;ratioP1;P2;durP2;ratioP2
36355;SDS011;22384;54.302;18.596;2023-03-12T00:00:30;5.53;;;3.67;;
36355;SDS011;22384;54.302;18.596;2023-03-12T00:02:56;6.40;;;3.60;;
36355;SDS011;22384;54.302;18.596;2023-03-12T00:05:23;8.88;;;4.18;;
36355;SDS011;22384;54.302;18.596;2023-03-12T00:07:52;6.93;;;3.22;;
36355;SDS011;22384;54.302;18.596;2023-03-12T00:10:19;6.38;;;3.10;;
36355;SDS011;22384;54.302;18.596;2023-03-12T00:12:45;10.30;;;3.88;;
36355;SDS011;22384;54.302;18.596;2023-03-12T00:15:11;8.10;;;3.53;;
36355;SDS011;22384;54.302;18.596;2023-03-12T00:17:37;7.75;;;3.65;;
36355;SDS011;22384;54.302;18.596;2023-03-12T00:20:04;7.38;;;4.03;;
36355;SDS011;22384;54.302;18.596;2023-03-12T00:22:33;6.53;;;3.50;;
36355;SDS011;22384;54.302;18.596;2023-03-12T00:24:59;6.22;;;3.13;;
36355;SDS011;22384;54.302;18.596;2023-03-12T00:27:25;6.88;;;3.45;;
36355;SDS011;22384;54.302;18.596;2023-03-12T00:29:52;5.82;;;3.20;;
36355;SDS011;22384;54.302;18.596;2023-03-12T00:32:18;4.85;;;3.00;;
36355;SDS011;22384;54.302;18.596;2023-03-12T00:34:49;6.07;;;3.15;;
36355;SDS011;22384;54.302;18.596;2023-03-12T00:37:17;7.63;;;2.78;;
36355;SDS011;22384;54.302;18.596;2023-03-12T00:39:43;4.13;;;2.38;;
36355;SDS011;22384;54.302;18.596;2023-03-12T00:42:09;10.38;;;3.33;;
36355;SDS011;22384;54.302;18.596;2023-03-12T00:44:35;4.13;;;2.58;;
36355;SDS011;22384;54.302;18.596;2023-03-12T00:47:01;5.07;;;2.55;;
36355;SDS011;22384;54.302;18.596;2023-03-12T00:49:27;5.25;;;2.42;;
36355;SDS011;22384;54.302;18.596;2023-03-12T00:51:54;4.38;;;2.50;;
36355;SDS011;22384;54.302;18.596;2023-03-12T00:54:20;3.00;;;2.17;;
36355;SDS011;22384;54.302;18.596;2023-03-12T00:56:46;4.40;;;2.72;;
36355;SDS011;22384;54.302;18.596;2023-03-12T00:59:13;4.90;;;2.60;;
36355;SDS011;22384;54.302;18.596;2023-03-12T01:01:39;5.18;;;2.72;;
36355;SDS011;22384;54.302;18.596;2023-03-12T01:04:07;5.88;;;2.75;;
36355;SDS011;22384;54.302;18.596;2023-03-12T01:06:33;6.82;;;2.70;;
36355;SDS011;22384;54.302;18.596;2023-03-12T01:09:00;5.82;;;2.65;;
36355;SDS011;22384;54.302;18.596;2023-03-12T01:11:27;4.32;;;2.30;;
36355;SDS011;22384;54.302;18.596;2023-03-12T01:13:54;4.40;;;2.60;;
36355;SDS011;22384;54.302;18.596;2023-03-12T01:16:20;3.05;;;2.08;;
36355;SDS011;22384;54.302;18.596;2023-03-12T01:18:46;5.95;;;3.03;;
36355;SDS011;22384;54.302;18.596;2023-03-12T01:21:13;4.00;;;2.28;;
36355;SDS011;22384;54.302;18.596;2023-03-12T01:23:39;6.20;;;3.08;;
36355;SDS011;22384;54.302;18.596;2023-03-12T01:26:05;8.50;;;4.22;;
36355;SDS011;22384;54.302;18.596;2023-03-12T01:28:31;8.00;;;2.92;;
36355;SDS011;22384;54.302;18.596;2023-03-12T01:31:01;6.03;;;2.92;;
36355;SDS011;22384;54.302;18.596;2023-03-12T01:33:31;6.72;;;3.00;;
36355;SDS011;22384;54.302;18.596;2023-03-12T01:35:57;4.32;;;2.75;;
36355;SDS011;22384;54.302;18.596;2023-03-12T01:38:23;6.75;;;2.58;;
36355;SDS011;22384;54.302;18.596;2023-03-12T01:40:49;4.20;;;2.72;;
36355;SDS011;22384;54.302;18.596;2023-03-12T01:43:26;4.65;;;2.58;;
36355;SDS011;22384;54.302;18.596;2023-03-12T01:48:18;3.63;;;2.25;;
36355;SDS011;22384;54.302;18.596;2023-03-12T01:50:44;3.58;;;2.03;;
36355;SDS011;22384;54.302;18.596;2023-03-12T01:53:11;3.25;;;1.70;;
36355;SDS011;22384;54.302;18.596;2023-03-12T01:55:37;4.15;;;2.03;;
36355;SDS011;22384;54.302;18.596;2023-03-12T01:58:03;5.03;;;2.35;;
36355;SDS011;22384;54.302;18.596;2023-03-12T02:00:31;3.10;;;1.88;;
36355;SDS011;22384;54.302;18.596;2023-03-12T02:02:58;4.88;;;2.05;;
36355;SDS011;22384;54.302;18.596;2023-03-12T02:08:18;1.85;;;1.42;;
36355;SDS011;22384;54.302;18.596;2023-03-12T02:10:45;4.13;;;2.20;;
36355;SDS011;22384;54.302;18.596;2023-03-12T02:13:11;4.78;;;1.92;;
36355;SDS011;22384;54.302;18.596;2023-03-12T02:15:37;3.58;;;1.75;;
36355;SDS011;22384;54.302;18.596;2023-03-12T02:18:05;3.25;;;1.55;;
36355;SDS011;22384;54.302;18.596;2023-03-12T02:23:28;6.88;;;3.25;;
36355;SDS011;22384;54.302;18.596;2023-03-12T02:25:56;4.30;;;1.40;;
36355;SDS011;22384;54.302;18.596;2023-03-12T02:28:24;7.95;;;3.30;;
36355;SDS011;22384;54.302;18.596;2023-03-12T02:30:52;4.53;;;1.80;;
36355;SDS011;22384;54.302;18.596;2023-03-12T02:33:19;3.67;;;1.30;;
36355;SDS011;22384;54.302;18.596;2023-03-12T02:35:46;3.80;;;1.23;;
36355;SDS011;22384;54.302;18.596;2023-03-12T02:40:57;1.25;;;0.90;;
36355;SDS011;22384;54.302;18.596;2023-03-12T02:43:25;3.38;;;1.20;;
36355;SDS011;22384;54.302;18.596;2023-03-12T02:45:51;3.70;;;1.08;;
36355;SDS011;22384;54.302;18.596;2023-03-12T02:48:17;3.63;;;1.02;;
36355;SDS011;22384;54.302;18.596;2023-03-12T02:50:43;5.93;;;1.10;;
36355;SDS011;22384;54.302;18.596;2023-03-12T02:53:12;4.22;;;1.17;;
36355;SDS011;22384;54.302;18.596;2023-03-12T02:55:38;3.88;;;1.10;;
36355;SDS011;22384;54.302;18.596;2023-03-12T02:58:04;2.47;;;0.88;;
36355;SDS011;22384;54.302;18.596;2023-03-12T03:00:30;5.95;;;1.73;;
36355;SDS011;22384;54.302;18.596;2023-03-12T03:02:57;3.28;;;0.80;;
36355;SDS011;22384;54.302;18.596;2023-03-12T03:05:25;5.03;;;0.80;;
36355;SDS011;22384;54.302;18.596;2023-03-12T03:07:51;4.07;;;1.25;;
36355;SDS011;22384;54.302;18.596;2023-03-12T03:10:18;5.13;;;0.98;;
36355;SDS011;22384;54.302;18.596;2023-03-12T03:12:44;1.75;;;0.98;;
36355;SDS011;22384;54.302;18.596;2023-03-12T03:15:11;9.98;;;1.27;;
36355;SDS011;22384;54.302;18.596;2023-03-12T03:17:37;8.30;;;1.10;;
36355;SDS011;22384;54.302;18.596;2023-03-12T03:20:03;8.02;;;1.00;;
36355;SDS011;22384;54.302;18.596;2023-03-12T03:22:33;6.90;;;0.90;;
36355;SDS011;22384;54.302;18.596;2023-03-12T03:24:59;2.20;;;0.82;;
36355;SDS011;22384;54.302;18.596;2023-03-12T03:27:26;1.13;;;0.43;;
36355;SDS011;22384;54.302;18.596;2023-03-12T03:29:52;4.55;;;0.55;;
36355;SDS011;22384;54.302;18.596;2023-03-12T03:32:18;1.85;;;0.60;;
36355;SDS011;22384;54.302;18.596;2023-03-12T03:34:44;1.63;;;0.57;;
36355;SDS011;22384;54.302;18.596;2023-03-12T03:37:11;7.65;;;0.98;;
36355;SDS011;22384;54.302;18.596;2023-03-12T03:39:37;4.82;;;0.98;;
36355;SDS011;22384;54.302;18.596;2023-03-12T03:42:04;4.60;;;0.88;;
36355;SDS011;22384;54.302;18.596;2023-03-12T03:44:30;6.03;;;1.05;;
36355;SDS011;22384;54.302;18.596;2023-03-12T03:46:56;1.85;;;0.57;;
36355;SDS011;22384;54.302;18.596;2023-03-12T03:49:23;1.95;;;0.88;;
36355;SDS011;22384;54.302;18.596;2023-03-12T03:51:49;5.90;;;1.77;;
36355;SDS011;22384;54.302;18.596;2023-03-12T03:54:16;5.25;;;0.80;;
36355;SDS011;22384;54.302;18.596;2023-03-12T03:56:42;3.35;;;1.00;;
36355;SDS011;22384;54.302;18.596;2023-03-12T03:59:10;5.78;;;1.02;;
36355;SDS011;22384;54.302;18.596;2023-03-12T04:01:37;3.70;;;0.68;;
36355;SDS011;22384;54.302;18.596;2023-03-12T04:04:03;6.78;;;1.48;;
36355;SDS011;22384;54.302;18.596;2023-03-12T04:06:29;5.28;;;0.90;;
36355;SDS011;22384;54.302;18.596;2023-03-12T04:08:56;7.88;;;1.50;;
36355;SDS011;22384;54.302;18.596;2023-03-12T04:11:22;5.65;;;1.83;;
36355;SDS011;22384;54.302;18.596;2023-03-12T04:13:49;3.70;;;1.05;;
36355;SDS011;22384;54.302;18.596;2023-03-12T04:16:16;4.30;;;1.20;;
36355;SDS011;22384;54.302;18.596;2023-03-12T04:18:43;3.63;;;1.17;;
36355;SDS011;22384;54.302;18.596;2023-03-12T04:21:10;4.70;;;1.30;;
36355;SDS011;22384;54.302;18.596;2023-03-12T04:23:37;3.17;;;0.93;;
36355;SDS011;22384;54.302;18.596;2023-03-12T04:26:03;9.20;;;1.27;;
36355;SDS011;22384;54.302;18.596;2023-03-12T04:28:30;2.28;;;1.15;;
36355;SDS011;22384;54.302;18.596;2023-03-12T04:30:57;2.33;;;0.80;;
36355;SDS011;22384;54.302;18.596;2023-03-12T04:33:24;2.45;;;0.70;;
36355;SDS011;22384;54.302;18.596;2023-03-12T04:35:51;6.60;;;1.23;;
36355;SDS011;22384;54.302;18.596;2023-03-12T04:38:18;5.63;;;1.23;;
36355;SDS011;22384;54.302;18.596;2023-03-12T04:43:15;3.30;;;0.60;;
36355;SDS011;22384;54.302;18.596;2023-03-12T04:45:45;5.72;;;1.00;;
36355;SDS011;22384;54.302;18.596;2023-03-12T04:48:12;6.40;;;1.13;;
36355;SDS011;22384;54.302;18.596;2023-03-12T04:50:38;2.33;;;0.63;;
36355;SDS011;22384;54.302;18.596;2023-03-12T04:53:04;4.05;;;0.68;;
36355;SDS011;22384;54.302;18.596;2023-03-12T04:55:30;2.38;;;0.73;;
36355;SDS011;22384;54.302;18.596;2023-03-12T04:57:56;5.35;;;1.00;;
36355;SDS011;22384;54.302;18.596;2023-03-12T05:00:23;1.90;;;0.80;;
36355;SDS011;22384;54.302;18.596;2023-03-12T05:02:51;4.75;;;1.02;;
36355;SDS011;22384;54.302;18.596;2023-03-12T05:05:17;3.20;;;1.35;;
36355;SDS011;22384;54.302;18.596;2023-03-12T05:07:43;5.45;;;1.20;;
36355;SDS011;22384;54.302;18.596;2023-03-12T05:10:10;3.67;;;1.73;;
36355;SDS011;22384;54.302;18.596;2023-03-12T05:12:36;5.85;;;0.95;;
36355;SDS011;22384;54.302;18.596;2023-03-12T05:15:02;3.38;;;0.90;;
36355;SDS011;22384;54.302;18.596;2023-03-12T05:17:28;5.93;;;0.80;;
36355;SDS011;22384;54.302;18.596;2023-03-12T05:19:54;2.88;;;0.63;;
36355;SDS011;22384;54.302;18.596;2023-03-12T05:22:21;1.75;;;0.93;;
36355;SDS011;22384;54.302;18.596;2023-03-12T05:24:47;5.88;;;0.88;;
36355;SDS011;22384;54.302;18.596;2023-03-12T05:27:13;4.35;;;0.75;;
36355;SDS011;22384;54.302;18.596;2023-03-12T05:29:39;1.90;;;0.77;;
36355;SDS011;22384;54.302;18.596;2023-03-12T05:32:06;3.85;;;1.08;;
36355;SDS011;22384;54.302;18.596;2023-03-12T05:34:32;3.72;;;0.73;;
36355;SDS011;22384;54.302;18.596;2023-03-12T05:37:00;7.10;;;1.45;;
36355;SDS011;22384;54.302;18.596;2023-03-12T05:39:27;4.00;;;0.85;;
36355;SDS011;22384;54.302;18.596;2023-03-12T05:41:53;3.65;;;1.08;;
36355;SDS011;22384;54.302;18.596;2023-03-12T05:44:24;7.78;;;1.17;;
36355;SDS011;22384;54.302;18.596;2023-03-12T05:46:50;5.95;;;1.23;;
36355;SDS011;22384;54.302;18.596;2023-03-12T05:49:17;3.67;;;0.77;;
36355;SDS011;22384;54.302;18.596;2023-03-12T05:51:43;5.55;;;1.35;;
36355;SDS011;22384;54.302;18.596;2023-03-12T05:54:10;3.90;;;0.90;;
36355;SDS011;22384;54.302;18.596;2023-03-12T05:56:36;8.07;;;1.00;;
36355;SDS011;22384;54.302;18.596;2023-03-12T05:59:03;4.82;;;1.02;;
36355;SDS011;22384;54.302;18.596;2023-03-12T06:01:29;2.70;;;1.20;;
36355;SDS011;22384;54.302;18.596;2023-03-12T06:03:55;2.30;;;0.85;;
36355;SDS011;22384;54.302;18.596;2023-03-12T06:06:22;6.00;;;1.10;;
36355;SDS011;22384;54.302;18.596;2023-03-12T06:08:48;4.05;;;1.33;;
36355;SDS011;22384;54.302;18.596;2023-03-12T06:11:15;5.25;;;1.10;;
36355;SDS011;22384;54.302;18.596;2023-03-12T06:13:41;2.58;;;0.80;;
36355;SDS011;22384;54.302;18.596;2023-03-12T06:16:19;2.90;;;0.90;;
36355;SDS011;22384;54.302;18.596;2023-03-12T06:18:45;2.28;;;0.85;;
36355;SDS011;22384;54.302;18.596;2023-03-12T06:21:19;5.68;;;1.20;;
36355;SDS011;22384;54.302;18.596;2023-03-12T06:23:45;2.58;;;0.77;;
36355;SDS011;22384;54.302;18.596;2023-03-12T06:26:12;4.30;;;1.00;;
36355;SDS011;22384;54.302;18.596;2023-03-12T06:28:38;2.78;;;1.08;;
36355;SDS011;22384;54.302;18.596;2023-03-12T06:31:12;8.68;;;1.02;;
36355;SDS011;22384;54.302;18.596;2023-03-12T06:33:39;1.67;;;0.82;;
36355;SDS011;22384;54.302;18.596;2023-03-12T06:36:05;3.30;;;1.00;;
36355;SDS011;22384;54.302;18.596;2023-03-12T06:38:32;8.93;;;1.10;;
36355;SDS011;22384;54.302;18.596;2023-03-12T06:40:59;5.65;;;1.38;;
36355;SDS011;22384;54.302;18.596;2023-03-12T06:43:26;7.47;;;1.75;;
36355;SDS011;22384;54.302;18.596;2023-03-12T06:45:55;8.52;;;1.95;;
36355;SDS011;22384;54.302;18.596;2023-03-12T06:48:22;9.82;;;1.45;;
36355;SDS011;22384;54.302;18.596;2023-03-12T06:50:49;7.25;;;1.15;;
36355;SDS011;22384;54.302;18.596;2023-03-12T06:53:15;4.75;;;1.33;;
36355;SDS011;22384;54.302;18.596;2023-03-12T06:55:42;7.25;;;1.25;;
36355;SDS011;22384;54.302;18.596;2023-03-12T06:58:09;7.15;;;1.20;;
36355;SDS011;22384;54.302;18.596;2023-03-12T07:00:35;4.13;;;1.13;;
36355;SDS011;22384;54.302;18.596;2023-03-12T07:03:01;2.88;;;0.82;;
36355;SDS011;22384;54.302;18.596;2023-03-12T07:05:27;9.07;;;1.35;;
36355;SDS011;22384;54.302;18.596;2023-03-12T07:07:54;9.13;;;1.45;;
36355;SDS011;22384;54.302;18.596;2023-03-12T07:10:20;7.10;;;1.95;;
36355;SDS011;22384;54.302;18.596;2023-03-12T07:12:46;5.30;;;1.42;;
36355;SDS011;22384;54.302;18.596;2023-03-12T07:15:13;6.38;;;1.38;;
36355;SDS011;22384;54.302;18.596;2023-03-12T07:17:39;4.53;;;1.13;;
36355;SDS011;22384;54.302;18.596;2023-03-12T07:20:05;4.30;;;1.75;;
36355;SDS011;22384;54.302;18.596;2023-03-12T07:22:31;5.03;;;1.17;;
36355;SDS011;22384;54.302;18.596;2023-03-12T07:24:58;1.75;;;0.90;;
36355;SDS011;22384;54.302;18.596;2023-03-12T07:27:24;6.60;;;1.20;;
36355;SDS011;22384;54.302;18.596;2023-03-12T07:29:50;1.92;;;0.80;;
36355;SDS011;22384;54.302;18.596;2023-03-12T07:32:17;4.93;;;1.10;;
36355;SDS011;22384;54.302;18.596;2023-03-12T07:34:43;4.68;;;0.90;;
36355;SDS011;22384;54.302;18.596;2023-03-12T07:37:09;4.70;;;1.02;;
36355;SDS011;22384;54.302;18.596;2023-03-12T07:39:35;4.88;;;1.58;;
36355;SDS011;22384;54.302;18.596;2023-03-12T07:42:02;6.43;;;2.22;;
36355;SDS011;22384;54.302;18.596;2023-03-12T07:44:28;7.47;;;2.05;;
36355;SDS011;22384;54.302;18.596;2023-03-12T07:46:54;6.85;;;1.27;;
36355;SDS011;22384;54.302;18.596;2023-03-12T07:49:20;7.93;;;1.20;;
36355;SDS011;22384;54.302;18.596;2023-03-12T07:51:46;2.83;;;1.23;;
36355;SDS011;22384;54.302;18.596;2023-03-12T07:54:12;8.85;;;1.50;;
36355;SDS011;22384;54.302;18.596;2023-03-12T07:56:39;4.85;;;1.30;;
36355;SDS011;22384;54.302;18.596;2023-03-12T07:59:06;6.30;;;1.38;;
36355;SDS011;22384;54.302;18.596;2023-03-12T08:01:32;6.30;;;1.75;;
36355;SDS011;22384;54.302;18.596;2023-03-12T08:04:01;3.95;;;1.30;;
36355;SDS011;22384;54.302;18.596;2023-03-12T08:06:27;7.03;;;1.65;;
36355;SDS011;22384;54.302;18.596;2023-03-12T08:08:54;3.85;;;1.33;;
36355;SDS011;22384;54.302;18.596;2023-03-12T08:11:20;9.43;;;1.88;;
36355;SDS011;22384;54.302;18.596;2023-03-12T08:13:47;5.38;;;1.48;;
36355;SDS011;22384;54.302;18.596;2023-03-12T08:16:13;4.55;;;1.35;;
36355;SDS011;22384;54.302;18.596;2023-03-12T08:18:41;3.88;;;1.13;;
36355;SDS011;22384;54.302;18.596;2023-03-12T08:21:07;8.02;;;1.13;;
36355;SDS011;22384;54.302;18.596;2023-03-12T08:23:34;6.13;;;1.80;;
36355;SDS011;22384;54.302;18.596;2023-03-12T08:26:00;3.35;;;1.13;;
36355;SDS011;22384;54.302;18.596;2023-03-12T08:28:27;4.30;;;0.98;;
36355;SDS011;22384;54.302;18.596;2023-03-12T08:30:54;8.20;;;1.20;;
36355;SDS011;22384;54.302;18.596;2023-03-12T08:33:23;4.05;;;1.40;;
36355;SDS011;22384;54.302;18.596;2023-03-12T08:35:49;5.93;;;1.13;;
36355;SDS011;22384;54.302;18.596;2023-03-12T08:38:16;3.60;;;1.55;;
36355;SDS011;22384;54.302;18.596;2023-03-12T08:40:43;9.40;;;1.23;;
36355;SDS011;22384;54.302;18.596;2023-03-12T08:43:09;3.47;;;1.05;;
36355;SDS011;22384;54.302;18.596;2023-03-12T08:45:35;10.07;;;1.27;;
36355;SDS011;22384;54.302;18.596;2023-03-12T08:48:02;2.80;;;0.90;;
36355;SDS011;22384;54.302;18.596;2023-03-12T08:50:28;7.20;;;1.10;;
36355;SDS011;22384;54.302;18.596;2023-03-12T08:52:59;8.07;;;2.28;;
36355;SDS011;22384;54.302;18.596;2023-03-12T08:55:25;11.35;;;1.85;;
36355;SDS011;22384;54.302;18.596;2023-03-12T08:57:54;6.25;;;1.98;;
36355;SDS011;22384;54.302;18.596;2023-03-12T09:00:21;5.53;;;1.70;;
36355;SDS011;22384;54.302;18.596;2023-03-12T09:02:47;4.03;;;1.02;;
36355;SDS011;22384;54.302;18.596;2023-03-12T09:05:16;5.75;;;1.52;;
36355;SDS011;22384;54.302;18.596;2023-03-12T09:07:42;6.15;;;1.52;;
36355;SDS011;22384;54.302;18.596;2023-03-12T09:10:08;5.78;;;1.60;;
36355;SDS011;22384;54.302;18.596;2023-03-12T09:12:35;1.90;;;0.82;;
36355;SDS011;22384;54.302;18.596;2023-03-12T09:15:01;8.32;;;1.20;;
36355;SDS011;22384;54.302;18.596;2023-03-12T09:17:28;5.38;;;1.80;;
36355;SDS011;22384;54.302;18.596;2023-03-12T09:19:54;3.88;;;1.13;;
36355;SDS011;22384;54.302;18.596;2023-03-12T09:22:21;4.10;;;1.58;;
36355;SDS011;22384;54.302;18.596;2023-03-12T09:24:48;5.13;;;1.42;;
36355;SDS011;22384;54.302;18.596;2023-03-12T09:27:14;3.67;;;1.50;;
36355;SDS011;22384;54.302;18.596;2023-03-12T09:29:40;11.95;;;4.10;;
36355;SDS011;22384;54.302;18.596;2023-03-12T09:32:06;5.07;;;1.67;;
36355;SDS011;22384;54.302;18.596;2023-03-12T09:34:33;9.27;;;2.75;;
36355;SDS011;22384;54.302;18.596;2023-03-12T09:37:00;4.43;;;1.15;;
36355;SDS011;22384;54.302;18.596;2023-03-12T09:39:26;5.45;;;1.60;;
36355;SDS011;22384;54.302;18.596;2023-03-12T09:41:52;1.73;;;1.13;;
36355;SDS011;22384;54.302;18.596;2023-03-12T09:44:35;4.90;;;1.40;;
36355;SDS011;22384;54.302;18.596;2023-03-12T09:47:06;5.80;;;1.50;;
36355;SDS011;22384;54.302;18.596;2023-03-12T09:49:36;13.38;;;1.95;;
36355;SDS011;22384;54.302;18.596;2023-03-12T09:52:07;3.45;;;1.40;;
36355;SDS011;22384;54.302;18.596;2023-03-12T09:54:46;7.22;;;1.50;;
36355;SDS011;22384;54.302;18.596;2023-03-12T09:57:21;7.70;;;2.72;;
36355;SDS011;22384;54.302;18.596;2023-03-12T09:59:49;9.38;;;1.67;;
36355;SDS011;22384;54.302;18.596;2023-03-12T10:02:34;2.60;;;1.55;;
36355;SDS011;22384;54.302;18.596;2023-03-12T10:07:34;4.70;;;1.30;;
36355;SDS011;22384;54.302;18.596;2023-03-12T10:17:41;5.05;;;1.30;;
36355;SDS011;22384;54.302;18.596;2023-03-12T10:25:15;3.83;;;1.20;;
36355;SDS011;22384;54.302;18.596;2023-03-12T10:27:47;2.83;;;1.02;;
36355;SDS011;22384;54.302;18.596;2023-03-12T10:30:19;4.88;;;0.98;;
36355;SDS011;22384;54.302;18.596;2023-03-12T10:32:52;3.55;;;1.00;;
36355;SDS011;22384;54.302;18.596;2023-03-12T10:35:22;6.03;;;1.25;;
36355;SDS011;22384;54.302;18.596;2023-03-12T10:37:56;5.63;;;0.88;;
36355;SDS011;22384;54.302;18.596;2023-03-12T10:40:40;5.00;;;1.00;;
36355;SDS011;22384;54.302;18.596;2023-03-12T10:43:07;9.35;;;1.70;;
36355;SDS011;22384;54.302;18.596;2023-03-12T10:48:19;4.13;;;1.23;;
36355;SDS011;22384;54.302;18.596;2023-03-12T10:50:58;8.95;;;2.13;;
36355;SDS011;22384;54.302;18.596;2023-03-12T10:53:32;4.10;;;1.00;;
36355;SDS011;22384;54.302;18.596;2023-03-12T10:56:09;6.97;;;1.17;;
36355;SDS011;22384;54.302;18.596;2023-03-12T11:01:03;5.78;;;2.45;;
36355;SDS011;22384;54.302;18.596;2023-03-12T11:03:30;4.75;;;1.10;;
36355;SDS011;22384;54.302;18.596;2023-03-12T11:06:01;5.32;;;1.65;;
36355;SDS011;22384;54.302;18.596;2023-03-12T11:08:31;6.05;;;1.00;;
36355;SDS011;22384;54.302;18.596;2023-03-12T11:10:58;2.40;;;1.13;;
36355;SDS011;22384;54.302;18.596;2023-03-12T11:13:26;1.73;;;0.60;;
36355;SDS011;22384;54.302;18.596;2023-03-12T11:15:53;2.22;;;0.95;;
36355;SDS011;22384;54.302;18.596;2023-03-12T11:18:32;2.78;;;1.20;;
36355;SDS011;22384;54.302;18.596;2023-03-12T11:23:33;6.18;;;1.38;;
36355;SDS011;22384;54.302;18.596;2023-03-12T11:26:01;7.47;;;1.20;;
36355;SDS011;22384;54.302;18.596;2023-03-12T11:28:39;7.18;;;1.35;;
36355;SDS011;22384;54.302;18.596;2023-03-12T11:31:14;2.35;;;0.88;;
36355;SDS011;22384;54.302;18.596;2023-03-12T11:33:43;3.65;;;1.02;;
36355;SDS011;22384;54.302;18.596;2023-03-12T11:36:21;3.30;;;1.30;;
36355;SDS011;22384;54.302;18.596;2023-03-12T11:46:29;3.20;;;1.10;;
36355;SDS011;22384;54.302;18.596;2023-03-12T11:51:40;6.05;;;1.27;;
36355;SDS011;22384;54.302;18.596;2023-03-12T11:54:19;4.38;;;1.05;;
36355;SDS011;22384;54.302;18.596;2023-03-12T11:59:51;7.00;;;1.20;;
36355;SDS011;22384;54.302;18.596;2023-03-12T12:02:35;6.07;;;1.30;;
36355;SDS011;22384;54.302;18.596;2023-03-12T12:20:19;1.65;;;1.00;;
36355;SDS011;22384;54.302;18.596;2023-03-12T12:25:26;5.82;;;1.10;;
36355;SDS011;22384;54.302;18.596;2023-03-12T12:30:31;6.10;;;0.98;;
36355;SDS011;22384;54.302;18.596;2023-03-12T12:35:48;4.57;;;0.95;;
36355;SDS011;22384;54.302;18.596;2023-03-12T12:40:48;1.85;;;0.82;;
36355;SDS011;22384;54.302;18.596;2023-03-12T12:43:26;5.22;;;0.90;;
36355;SDS011;22384;54.302;18.596;2023-03-12T12:45:58;4.40;;;1.10;;
36355;SDS011;22384;54.302;18.596;2023-03-12T12:51:18;5.88;;;1.20;;
36355;SDS011;22384;54.302;18.596;2023-03-12T12:53:52;6.05;;;1.33;;
36355;SDS011;22384;54.302;18.596;2023-03-12T12:59:16;2.95;;;1.00;;
36355;SDS011;22384;54.302;18.596;2023-03-12T13:01:45;5.63;;;1.20;;
36355;SDS011;22384;54.302;18.596;2023-03-12T13:04:14;4.70;;;1.00;;
36355;SDS011;22384;54.302;18.596;2023-03-12T13:09:33;4.93;;;1.00;;
36355;SDS011;22384;54.302;18.596;2023-03-12T13:12:10;3.50;;;1.00;;
36355;SDS011;22384;54.302;18.596;2023-03-12T13:14:40;4.53;;;1.40;;
36355;SDS011;22384;54.302;18.596;2023-03-12T13:17:17;2.53;;;1.17;;
36355;SDS011;22384;54.302;18.596;2023-03-12T13:19:46;9.00;;;1.77;;
36355;SDS011;22384;54.302;18.596;2023-03-12T13:27:59;3.28;;;1.13;;
36355;SDS011;22384;54.302;18.596;2023-03-12T13:35:28;4.88;;;0.98;;
36355;SDS011;22384;54.302;18.596;2023-03-12T13:38:32;1.65;;;0.73;;
36355;SDS011;22384;54.302;18.596;2023-03-12T13:40:59;6.63;;;1.10;;
36355;SDS011;22384;54.302;18.596;2023-03-12T13:43:30;8.05;;;1.27;;
36355;SDS011;22384;54.302;18.596;2023-03-12T13:48:47;3.95;;;0.60;;
36355;SDS011;22384;54.302;18.596;2023-03-12T13:51:18;1.80;;;0.60;;
36355;SDS011;22384;54.302;18.596;2023-03-12T13:53:49;4.15;;;1.00;;
36355;SDS011;22384;54.302;18.596;2023-03-12T13:56:18;5.38;;;0.90;;
36355;SDS011;22384;54.302;18.596;2023-03-12T14:01:19;5.00;;;1.15;;
36355;SDS011;22384;54.302;18.596;2023-03-12T14:03:47;2.35;;;0.88;;
36355;SDS011;22384;54.302;18.596;2023-03-12T14:06:19;4.47;;;0.90;;
36355;SDS011;22384;54.302;18.596;2023-03-12T14:08:56;4.05;;;1.00;;
36355;SDS011;22384;54.302;18.596;2023-03-12T14:11:47;4.55;;;0.90;;
36355;SDS011;22384;54.302;18.596;2023-03-12T14:17:22;4.10;;;1.20;;
36355;SDS011;22384;54.302;18.596;2023-03-12T14:20:03;3.45;;;1.15;;
36355;SDS011;22384;54.302;18.596;2023-03-12T14:22:32;3.75;;;1.33;;
36355;SDS011;22384;54.302;18.596;2023-03-12T14:27:54;7.32;;;1.15;;
36355;SDS011;22384;54.302;18.596;2023-03-12T14:30:24;5.28;;;1.30;;
36355;SDS011;22384;54.302;18.596;2023-03-12T14:32:55;3.38;;;1.23;;
36355;SDS011;22384;54.302;18.596;2023-03-12T14:35:27;4.18;;;1.30;;
36355;SDS011;22384;54.302;18.596;2023-03-12T14:45:55;1.27;;;0.88;;
36355;SDS011;22384;54.302;18.596;2023-03-12T14:48:26;2.00;;;1.10;;
36355;SDS011;22384;54.302;18.596;2023-03-12T14:50:53;4.32;;;1.20;;
36355;SDS011;22384;54.302;18.596;2023-03-12T14:53:24;4.68;;;1.60;;
36355;SDS011;22384;54.302;18.596;2023-03-12T14:58:18;3.53;;;1.35;;
36355;SDS011;22384;54.302;18.596;2023-03-12T15:00:49;2.60;;;1.10;;
36355;SDS011;22384;54.302;18.596;2023-03-12T15:03:19;4.97;;;0.98;;
36355;SDS011;22384;54.302;18.596;2023-03-12T15:05:45;1.92;;;1.25;;
36355;SDS011;22384;54.302;18.596;2023-03-12T15:08:12;4.07;;;1.58;;
36355;SDS011;22384;54.302;18.596;2023-03-12T15:10:39;4.05;;;1.55;;
36355;SDS011;22384;54.302;18.596;2023-03-12T15:13:05;3.05;;;1.40;;
36355;SDS011;22384;54.302;18.596;2023-03-12T15:15:35;5.00;;;1.20;;
36355;SDS011;22384;54.302;18.596;2023-03-12T15:18:09;8.63;;;1.30;;
36355;SDS011;22384;54.302;18.596;2023-03-12T15:20:36;4.35;;;1.42;;
36355;SDS011;22384;54.302;18.596;2023-03-12T15:23:03;4.10;;;1.50;;
36355;SDS011;22384;54.302;18.596;2023-03-12T15:25:31;2.55;;;1.05;;
36355;SDS011;22384;54.302;18.596;2023-03-12T15:30:27;4.63;;;1.55;;
36355;SDS011;22384;54.302;18.596;2023-03-12T15:38:26;6.45;;;2.03;;
36355;SDS011;22384;54.302;18.596;2023-03-12T15:40:53;9.90;;;1.67;;
36355;SDS011;22384;54.302;18.596;2023-03-12T15:43:21;2.90;;;1.52;;
36355;SDS011;22384;54.302;18.596;2023-03-12T15:45:55;8.18;;;2.08;;
36355;SDS011;22384;54.302;18.596;2023-03-12T15:48:32;3.03;;;1.58;;
36355;SDS011;22384;54.302;18.596;2023-03-12T15:50:59;3.78;;;1.50;;
36355;SDS011;22384;54.302;18.596;2023-03-12T15:53:27;8.98;;;3.20;;
36355;SDS011;22384;54.302;18.596;2023-03-12T15:56:00;5.38;;;1.55;;
36355;SDS011;22384;54.302;18.596;2023-03-12T16:01:42;7.38;;;1.95;;
36355;SDS011;22384;54.302;18.596;2023-03-12T16:04:08;9.40;;;2.05;;
36355;SDS011;22384;54.302;18.596;2023-03-12T16:06:34;5.45;;;1.70;;
36355;SDS011;22384;54.302;18.596;2023-03-12T16:09:03;7.18;;;1.60;;
36355;SDS011;22384;54.302;18.596;2023-03-12T16:11:30;6.53;;;1.67;;
36355;SDS011;22384;54.302;18.596;2023-03-12T16:14:00;8.82;;;2.13;;
36355;SDS011;22384;54.302;18.596;2023-03-12T16:16:28;10.63;;;2.00;;
36355;SDS011;22384;54.302;18.596;2023-03-12T16:18:54;4.25;;;1.67;;
36355;SDS011;22384;54.302;18.596;2023-03-12T16:21:20;7.88;;;2.63;;
36355;SDS011;22384;54.302;18.596;2023-03-12T16:23:46;3.88;;;2.20;;
36355;SDS011;22384;54.302;18.596;2023-03-12T16:26:13;5.35;;;1.60;;
36355;SDS011;22384;54.302;18.596;2023-03-12T16:28:39;10.77;;;2.53;;
36355;SDS011;22384;54.302;18.596;2023-03-12T16:31:09;6.70;;;2.60;;
36355;SDS011;22384;54.302;18.596;2023-03-12T16:33:37;7.53;;;2.30;;
36355;SDS011;22384;54.302;18.596;2023-03-12T16:36:08;6.72;;;2.72;;
36355;SDS011;22384;54.302;18.596;2023-03-12T16:38:36;7.30;;;2.30;;
36355;SDS011;22384;54.302;18.596;2023-03-12T16:41:02;9.93;;;2.33;;
36355;SDS011;22384;54.302;18.596;2023-03-12T16:43:30;6.55;;;2.40;;
36355;SDS011;22384;54.302;18.596;2023-03-12T16:45:59;12.25;;;3.17;;